createdAt,value
2017-11-25T00:00:52.909Z,217.80
2017-11-25T00:01:51.883Z,227.30
2017-11-25T00:02:51.983Z,219.10
2017-11-25T00:03:50.970Z,217.80
2017-11-25T00:04:51.478Z,212.60
2017-11-25T00:05:50.908Z,219.30
2017-11-25T00:06:52.275Z,232.00
2017-11-25T00:07:51.497Z,217.40
2017-11-25T00:08:50.996Z,204.50
2017-11-25T00:09:52.315Z,211.70
2017-11-25T00:10:50.795Z,223.60
2017-11-25T00:11:51.229Z,231.30
2017-11-25T00:12:51.148Z,210.10
2017-11-25T00:13:51.516Z,215.10
2017-11-25T00:14:50.889Z,227.70
2017-11-25T00:15:51.334Z,213.20
2017-11-25T00:16:51.517Z,225.70
2017-11-25T00:17:51.528Z,210.80
2017-11-25T00:18:51.103Z,219.70
2017-11-25T00:19:51.160Z,209.00
2017-11-25T00:20:51.587Z,204.90
2017-11-25T00:21:51.409Z,211.60
2017-11-25T00:22:50.968Z,230.70
2017-11-25T00:23:52.101Z,280.60
2017-11-25T00:24:51.602Z,286.70
2017-11-25T00:25:50.907Z,241.70
2017-11-25T00:26:51.326Z,248.00
2017-11-25T00:27:51.028Z,248.20
2017-11-25T00:28:51.474Z,245.30
2017-11-25T00:29:50.957Z,238.90
2017-11-25T00:30:51.488Z,240.10
2017-11-25T00:31:50.881Z,242.10
2017-11-25T00:32:51.256Z,229.20
2017-11-25T00:33:51.559Z,252.50
2017-11-25T00:34:50.951Z,216.90
2017-11-25T00:35:51.064Z,255.50
2017-11-25T00:36:51.346Z,262.20
2017-11-25T00:37:50.729Z,269.30
2017-11-25T00:38:51.146Z,222.80
2017-11-25T00:39:51.575Z,213.00
2017-11-25T00:40:51.524Z,223.10
2017-11-25T00:41:51.052Z,228.20
2017-11-25T00:42:51.360Z,229.40
2017-11-25T00:43:50.858Z,266.10
2017-11-25T00:44:51.272Z,232.40
2017-11-25T00:45:51.010Z,252.90
2017-11-25T00:46:51.092Z,253.70
2017-11-25T00:47:51.570Z,272.00
2017-11-25T00:48:51.311Z,290.90
2017-11-25T00:49:50.635Z,298.90
2017-11-25T00:50:50.995Z,299.30
2017-11-25T00:51:51.435Z,249.20
2017-11-25T00:52:50.904Z,266.80
2017-11-25T00:53:51.053Z,208.80
2017-11-25T00:54:51.065Z,231.00
2017-11-25T00:55:51.353Z,212.30
2017-11-25T00:56:50.759Z,211.00
2017-11-25T00:57:51.083Z,202.80
2017-11-25T00:58:51.563Z,194.70
2017-11-25T00:59:50.907Z,204.20
2017-11-25T01:00:51.415Z,221.70
2017-11-25T01:01:52.356Z,245.60
2017-11-25T01:02:50.736Z,249.70
2017-11-25T01:03:51.190Z,255.70
2017-11-25T01:04:51.517Z,277.80
2017-11-25T01:05:50.903Z,252.40
2017-11-25T01:06:51.337Z,245.60
2017-11-25T01:07:50.850Z,252.80
2017-11-25T01:08:51.373Z,282.10
2017-11-25T01:09:51.688Z,270.10
2017-11-25T01:10:51.083Z,253.50
2017-11-25T01:11:51.528Z,260.00
2017-11-25T01:12:50.909Z,253.80
2017-11-25T01:13:51.615Z,244.50
2017-11-25T01:14:51.352Z,247.10
2017-11-25T01:15:51.682Z,247.70
2017-11-25T01:16:50.043Z,265.50
2017-11-25T01:17:50.541Z,272.60
2017-11-25T01:18:50.010Z,245.80
2017-11-25T01:19:50.245Z,265.90
2017-11-25T01:20:51.033Z,233.00
2017-11-25T01:21:49.895Z,238.10
2017-11-25T01:22:49.771Z,231.00
2017-11-25T01:23:50.092Z,230.50
2017-11-25T01:24:50.316Z,237.30
2017-11-25T01:25:50.359Z,239.60
2017-11-25T01:26:49.815Z,224.50
2017-11-25T01:27:49.855Z,209.50
2017-11-25T01:28:49.628Z,212.20
2017-11-25T01:29:50.080Z,218.30
2017-11-25T01:30:56.752Z,204.80
2017-11-25T01:31:50.240Z,232.50
2017-11-25T01:32:49.711Z,221.90
2017-11-25T01:33:50.217Z,190.10
2017-11-25T01:34:50.855Z,218.00
2017-11-25T01:35:50.289Z,189.50
2017-11-25T01:36:50.461Z,199.30
2017-11-25T01:37:49.606Z,183.90
2017-11-25T01:38:49.696Z,193.30
2017-11-25T01:39:49.960Z,204.20
2017-11-25T01:40:50.308Z,197.00
2017-11-25T01:41:50.405Z,197.70
2017-11-25T01:42:49.541Z,205.00
2017-11-25T01:43:49.914Z,185.20
2017-11-25T01:44:50.370Z,201.60
2017-11-25T01:45:49.769Z,190.30
2017-11-25T01:46:49.830Z,192.20
2017-11-25T01:47:49.466Z,200.70
2017-11-25T01:48:49.979Z,204.40
2017-11-25T01:49:49.954Z,210.00
2017-11-25T01:50:50.039Z,214.20
2017-11-25T01:51:50.045Z,190.10
2017-11-25T01:52:49.949Z,196.40
2017-11-25T01:53:50.309Z,192.60
2017-11-25T01:54:49.144Z,191.50
2017-11-25T01:55:50.332Z,197.20
2017-11-25T01:56:49.241Z,205.70
2017-11-25T01:57:50.504Z,211.20
2017-11-25T01:58:49.963Z,211.40
2017-11-25T01:59:50.436Z,208.80
2017-11-25T02:00:49.934Z,199.60
2017-11-25T02:01:49.565Z,204.90
2017-11-25T02:02:50.623Z,217.00
2017-11-25T02:03:49.469Z,220.40
2017-11-25T02:04:49.622Z,214.00
2017-11-25T02:05:49.473Z,213.10
2017-11-25T02:06:50.479Z,221.30
2017-11-25T02:07:50.258Z,198.30
2017-11-25T02:08:50.093Z,218.50
2017-11-25T02:09:50.574Z,221.80
2017-11-25T02:10:49.809Z,219.40
2017-11-25T02:11:50.051Z,221.90
2017-11-25T02:12:50.407Z,215.70
2017-11-25T02:13:50.237Z,246.00
2017-11-25T02:14:50.586Z,210.00
2017-11-25T02:15:50.517Z,222.90
2017-11-25T02:16:49.548Z,261.60
2017-11-25T02:17:50.011Z,251.90
2017-11-25T02:18:50.729Z,250.70
2017-11-25T02:19:50.018Z,235.60
2017-11-25T02:20:50.273Z,231.40
2017-11-25T02:21:49.635Z,238.90
2017-11-25T02:22:49.923Z,295.90
2017-11-25T02:23:50.526Z,244.80
2017-11-25T02:24:49.606Z,292.90
2017-11-25T02:25:49.856Z,284.40
2017-11-25T02:26:50.254Z,254.10
2017-11-25T02:27:49.519Z,273.60
2017-11-25T02:28:49.494Z,270.60
2017-11-25T02:29:50.137Z,232.20
2017-11-25T02:30:49.640Z,255.30
2017-11-25T02:31:50.148Z,232.30
2017-11-25T02:32:50.444Z,257.00
2017-11-25T02:33:49.765Z,236.70
2017-11-25T02:34:50.407Z,216.40
2017-11-25T02:35:50.468Z,210.90
2017-11-25T02:36:49.892Z,232.00
2017-11-25T02:37:50.092Z,261.60
2017-11-25T02:38:50.463Z,237.40
2017-11-25T02:39:49.738Z,237.80
2017-11-25T02:40:50.139Z,249.60
2017-11-25T02:41:50.897Z,238.10
2017-11-25T02:42:50.191Z,216.00
2017-11-25T02:43:50.062Z,245.70
2017-11-25T02:44:50.369Z,289.70
2017-11-25T02:45:49.526Z,241.30
2017-11-25T02:46:50.016Z,227.00
2017-11-25T02:47:50.372Z,230.00
2017-11-25T02:48:49.374Z,207.20
2017-11-25T02:49:49.732Z,215.10
2017-11-25T02:50:50.025Z,215.40
2017-11-25T02:51:50.002Z,204.80
2017-11-25T02:52:49.835Z,231.10
2017-11-25T02:53:50.385Z,222.70
2017-11-25T02:54:49.588Z,228.00
2017-11-25T02:55:50.253Z,232.00
2017-11-25T02:56:50.045Z,218.20
2017-11-25T02:57:49.989Z,230.10
2017-11-25T02:58:50.017Z,227.50
2017-11-25T02:59:49.945Z,220.30
2017-11-25T03:00:49.904Z,221.60
2017-11-25T03:01:49.819Z,225.40
2017-11-25T03:02:49.892Z,238.30
2017-11-25T03:03:50.230Z,244.30
2017-11-25T03:06:08.164Z,264.20
2017-11-25T03:07:08.622Z,277.70
2017-11-25T03:08:08.873Z,229.60
2017-11-25T03:09:08.019Z,241.60
2017-11-25T03:10:08.160Z,228.30
2017-11-25T03:11:08.783Z,221.20
2017-11-25T03:12:07.637Z,254.90
2017-11-25T03:13:09.673Z,289.70
2017-11-25T03:14:08.952Z,259.00
2017-11-25T03:15:08.254Z,271.80
2017-11-25T03:16:08.585Z,282.30
2017-11-25T03:17:08.841Z,271.70
2017-11-25T03:18:08.016Z,283.10
2017-11-25T03:19:08.036Z,293.50
2017-11-25T03:20:08.304Z,290.80
2017-11-25T03:21:08.768Z,280.70
2017-11-25T03:22:08.620Z,251.00
2017-11-25T03:23:08.523Z,269.00
2017-11-25T03:24:08.793Z,254.00
2017-11-25T03:25:08.117Z,280.00
2017-11-25T03:26:08.640Z,260.60
2017-11-25T03:27:08.829Z,262.40
2017-11-25T03:28:07.992Z,254.20
2017-11-25T03:29:08.276Z,273.70
2017-11-25T03:30:08.670Z,270.20
2017-11-25T03:31:08.501Z,282.60
2017-11-25T03:32:08.187Z,269.00
2017-11-25T03:33:08.305Z,270.30
2017-11-25T03:34:08.476Z,283.40
2017-11-25T03:35:08.957Z,272.80
2017-11-25T03:36:08.244Z,256.80
2017-11-25T03:37:08.315Z,263.20
2017-11-25T03:38:08.368Z,253.60
2017-11-25T03:39:08.582Z,248.40
2017-11-25T03:40:08.794Z,273.30
2017-11-25T03:41:08.091Z,264.50
2017-11-25T03:42:08.482Z,249.40
2017-11-25T03:43:08.961Z,290.30
2017-11-25T03:44:08.304Z,277.50
2017-11-25T03:45:07.973Z,248.00
2017-11-25T03:46:08.402Z,244.80
2017-11-25T03:47:08.864Z,254.80
2017-11-25T03:48:08.097Z,274.10
2017-11-25T03:49:08.161Z,258.70
2017-11-25T03:50:08.139Z,266.30
2017-11-25T03:51:08.195Z,262.50
2017-11-25T03:52:09.168Z,266.50
2017-11-25T03:53:08.478Z,254.20
2017-11-25T03:54:08.669Z,274.40
2017-11-25T03:55:09.036Z,268.70
2017-11-25T03:56:08.474Z,279.70
2017-11-25T03:57:08.631Z,267.10
2017-11-25T03:58:08.814Z,249.70
2017-11-25T03:59:08.345Z,251.20
2017-11-25T04:00:08.836Z,255.10
2017-11-25T04:01:08.458Z,246.50
2017-11-25T04:02:08.804Z,238.40
2017-11-25T04:03:07.970Z,247.20
2017-11-25T04:04:08.166Z,252.60
2017-11-25T04:05:08.443Z,243.80
2017-11-25T04:06:08.695Z,239.70
2017-11-25T04:07:08.104Z,255.50
2017-11-25T04:08:08.476Z,243.40
2017-11-25T04:09:08.480Z,259.00
2017-11-25T04:10:07.528Z,242.30
2017-11-25T04:11:07.676Z,266.90
2017-11-25T04:12:08.803Z,249.40
2017-11-25T04:13:07.920Z,237.00
2017-11-25T04:14:07.764Z,230.00
2017-11-25T04:15:11.451Z,278.80
2017-11-25T04:16:08.498Z,306.90
2017-11-25T04:17:08.897Z,319.90
2017-11-25T04:18:08.321Z,272.90
2017-11-25T04:19:08.400Z,273.20
2017-11-25T04:20:08.363Z,265.50
2017-11-25T04:21:08.499Z,275.40
2017-11-25T04:22:08.516Z,255.30
2017-11-25T04:23:09.233Z,243.70
2017-11-25T04:24:08.594Z,252.50
2017-11-25T04:25:08.751Z,257.70
2017-11-25T04:26:07.840Z,237.60
2017-11-25T04:27:07.906Z,248.70
2017-11-25T04:28:08.548Z,238.20
2017-11-25T04:29:08.822Z,263.80
2017-11-25T04:30:07.925Z,240.40
2017-11-25T04:31:08.080Z,295.10
2017-11-25T04:32:08.459Z,288.20
2017-11-25T04:33:08.403Z,325.20
2017-11-25T04:34:08.716Z,253.20
2017-11-25T04:35:08.072Z,254.50
2017-11-25T04:36:08.075Z,265.50
2017-11-25T04:37:08.176Z,274.40
2017-11-25T04:38:08.979Z,255.40
2017-11-25T04:39:08.502Z,336.60
2017-11-25T04:40:08.491Z,280.70
2017-11-25T04:41:08.513Z,283.00
2017-11-25T04:42:08.918Z,280.80
2017-11-25T04:43:08.077Z,260.60
2017-11-25T04:44:07.992Z,272.20
2017-11-25T04:45:08.369Z,258.40
2017-11-25T04:46:08.259Z,262.20
2017-11-25T04:47:08.367Z,234.20
2017-11-25T04:48:08.508Z,266.50
2017-11-25T04:49:08.527Z,279.00
2017-11-25T04:50:08.634Z,247.40
2017-11-25T04:51:08.470Z,280.20
2017-11-25T04:52:08.580Z,313.50
2017-11-25T04:53:08.608Z,261.00
2017-11-25T04:54:07.716Z,228.90
2017-11-25T04:55:07.813Z,225.90
2017-11-25T04:56:08.132Z,257.50
2017-11-25T04:57:08.234Z,257.00
2017-11-25T04:58:08.530Z,261.50
2017-11-25T04:59:08.424Z,271.50
2017-11-25T05:00:08.448Z,288.30
2017-11-25T05:01:09.025Z,268.80
2017-11-25T05:02:07.797Z,266.70
2017-11-25T05:03:08.466Z,270.50
2017-11-25T05:04:08.400Z,254.20
2017-11-25T05:05:08.369Z,243.30
2017-11-25T05:06:08.589Z,266.10
2017-11-25T05:07:07.654Z,276.30
2017-11-25T05:08:08.873Z,265.10
2017-11-25T05:09:08.532Z,277.40
2017-11-25T05:10:07.902Z,264.20
2017-11-25T05:11:08.257Z,280.90
2017-11-25T05:12:08.620Z,302.60
2017-11-25T05:13:07.917Z,264.10
2017-11-25T05:14:08.169Z,238.00
2017-11-25T05:15:08.545Z,218.40
2017-11-25T05:16:08.758Z,203.90
2017-11-25T05:17:07.915Z,212.20
2017-11-25T05:18:08.809Z,216.80
2017-11-25T05:19:08.634Z,211.90
2017-11-25T05:20:08.229Z,209.70
2017-11-25T05:21:08.418Z,202.50
2017-11-25T05:22:08.393Z,212.90
2017-11-25T05:23:08.220Z,204.40
2017-11-25T05:24:08.488Z,194.10
2017-11-25T05:25:09.077Z,173.90
2017-11-25T05:26:08.585Z,174.10
2017-11-25T05:27:07.569Z,175.30
2017-11-25T05:28:08.855Z,160.40
2017-11-25T05:29:08.828Z,166.80
2017-11-25T05:30:08.051Z,185.70
2017-11-25T05:31:08.365Z,195.60
2017-11-25T05:32:08.775Z,205.30
2017-11-25T05:33:08.137Z,202.50
2017-11-25T05:34:08.725Z,195.80
2017-11-25T05:35:08.390Z,205.60
2017-11-25T05:36:08.839Z,211.70
2017-11-25T05:37:07.880Z,202.50
2017-11-25T05:38:08.415Z,188.30
2017-11-25T05:39:08.726Z,195.40
2017-11-25T05:40:07.668Z,185.80
2017-11-25T05:41:08.536Z,184.00
2017-11-25T05:42:08.282Z,173.10
2017-11-25T05:43:07.971Z,176.30
2017-11-25T05:44:08.154Z,171.50
2017-11-25T05:45:08.120Z,171.50
2017-11-25T05:46:08.226Z,193.90
2017-11-25T05:47:07.573Z,177.40
2017-11-25T05:48:07.750Z,174.70
2017-11-25T05:49:08.246Z,166.50
2017-11-25T05:50:08.501Z,161.90
2017-11-25T05:51:09.062Z,168.10
2017-11-25T05:52:07.952Z,163.90
2017-11-25T05:53:08.334Z,172.50
2017-11-25T05:54:08.393Z,177.80
2017-11-25T05:55:07.832Z,171.60
2017-11-25T05:56:08.748Z,175.80
2017-11-25T05:57:08.503Z,182.90
2017-11-25T05:58:07.979Z,184.00
2017-11-25T05:59:08.230Z,177.40
2017-11-25T06:00:08.761Z,171.00
2017-11-25T06:01:09.382Z,169.70
2017-11-25T06:02:08.433Z,170.80
2017-11-25T06:03:08.824Z,165.20
2017-11-25T06:04:08.037Z,166.00
2017-11-25T06:05:08.125Z,169.70
2017-11-25T06:06:08.372Z,169.00
2017-11-25T06:07:08.383Z,174.90
2017-11-25T06:08:08.620Z,168.40
2017-11-25T06:09:09.155Z,173.30
2017-11-25T06:10:08.324Z,184.80
2017-11-25T06:11:08.245Z,178.70
2017-11-25T06:12:08.478Z,183.10
2017-11-25T06:13:08.668Z,174.90
2017-11-25T06:14:09.078Z,172.10
2017-11-25T06:15:08.245Z,173.90
2017-11-25T06:16:08.123Z,170.70
2017-11-25T06:17:08.240Z,178.50
2017-11-25T06:18:08.376Z,190.20
2017-11-25T06:19:08.627Z,184.20
2017-11-25T06:20:08.072Z,193.70
2017-11-25T06:21:08.284Z,189.30
2017-11-25T06:22:08.445Z,175.20
2017-11-25T06:23:08.298Z,188.80
2017-11-25T06:24:08.642Z,188.40
2017-11-25T06:25:08.536Z,188.10
2017-11-25T06:26:08.998Z,186.90
2017-11-25T06:27:08.209Z,183.20
2017-11-25T06:28:08.646Z,190.90
2017-11-25T06:29:12.248Z,171.40
2017-11-25T06:30:08.243Z,173.40
2017-11-25T06:31:08.180Z,179.90
2017-11-25T06:32:08.119Z,173.80
2017-11-25T06:33:07.685Z,186.50
2017-11-25T06:34:09.071Z,180.30
2017-11-25T06:35:09.062Z,174.70
2017-11-25T06:36:08.318Z,167.00
2017-11-25T06:37:08.639Z,197.40
2017-11-25T06:38:08.287Z,216.90
2017-11-25T06:39:08.335Z,230.60
2017-11-25T06:40:08.641Z,210.30
2017-11-25T06:41:08.831Z,202.60
2017-11-25T06:42:08.046Z,206.30
2017-11-25T06:43:08.326Z,195.50
2017-11-25T06:44:08.727Z,195.80
2017-11-25T06:45:08.205Z,198.90
2017-11-25T06:46:08.704Z,209.40
2017-11-25T06:47:08.765Z,234.30
2017-11-25T06:48:07.984Z,202.20
2017-11-25T06:49:08.292Z,198.40
2017-11-25T06:50:08.389Z,226.80
2017-11-25T06:51:08.969Z,236.70
2017-11-25T06:52:08.496Z,224.30
2017-11-25T06:53:08.683Z,209.20
2017-11-25T06:54:09.689Z,222.20
2017-11-25T06:55:08.847Z,232.40
2017-11-25T06:56:08.883Z,223.30
2017-11-25T06:57:08.090Z,230.90
2017-11-25T06:58:08.827Z,232.60
2017-11-25T06:59:08.277Z,243.50
2017-11-25T07:00:08.797Z,239.00
2017-11-25T07:01:08.145Z,229.00
2017-11-25T07:02:08.628Z,209.70
2017-11-25T07:03:08.825Z,204.80
2017-11-25T07:04:08.525Z,219.50
2017-11-25T07:05:09.523Z,209.50
2017-11-25T07:06:08.922Z,213.50
2017-11-25T07:07:08.373Z,203.00
2017-11-25T07:08:09.020Z,210.00
2017-11-25T07:09:08.278Z,194.80
2017-11-25T07:10:08.736Z,182.10
2017-11-25T07:11:09.527Z,177.10
2017-11-25T07:12:09.125Z,172.80
2017-11-25T07:13:08.979Z,167.20
2017-11-25T07:14:08.199Z,177.20
2017-11-25T07:15:08.600Z,181.00
2017-11-25T07:16:09.234Z,166.70
2017-11-25T07:17:08.886Z,187.70
2017-11-25T07:18:07.901Z,196.00
2017-11-25T07:19:08.027Z,178.60
2017-11-25T07:20:08.624Z,173.90
2017-11-25T07:21:09.170Z,175.20
2017-11-25T07:22:08.790Z,161.50
2017-11-25T07:23:08.301Z,165.50
2017-11-25T07:24:08.716Z,169.30
2017-11-25T07:25:08.991Z,175.10
2017-11-25T07:26:08.093Z,179.80
2017-11-25T07:27:09.285Z,190.00
2017-11-25T07:28:08.973Z,196.20
2017-11-25T07:29:08.217Z,201.40
2017-11-25T07:30:08.476Z,212.60
2017-11-25T07:31:27.888Z,232.10
2017-11-25T07:32:08.460Z,193.20
2017-11-25T07:33:09.352Z,195.60
2017-11-25T07:34:10.533Z,226.50
2017-11-25T07:35:08.048Z,211.30
2017-11-25T07:36:08.689Z,230.80
2017-11-25T07:37:08.735Z,204.90
2017-11-25T07:38:08.812Z,218.80
2017-11-25T07:39:30.721Z,189.20
2017-11-25T07:40:12.330Z,196.50
2017-11-25T07:41:11.034Z,177.90
2017-11-25T07:42:12.790Z,162.90
2017-11-25T07:43:10.166Z,171.30
2017-11-25T07:44:10.157Z,172.80
2017-11-25T07:45:11.057Z,187.70
2017-11-25T07:46:09.846Z,206.20
2017-11-25T07:47:10.425Z,189.70
2017-11-25T07:54:12.053Z,202.50
2017-11-25T07:55:12.789Z,182.10
2017-11-25T07:56:13.127Z,173.60
2017-11-25T07:57:12.647Z,157.90
2017-11-25T07:58:13.364Z,166.30
2017-11-25T07:59:12.402Z,163.60
2017-11-25T08:00:13.241Z,189.30
2017-11-25T08:01:12.765Z,185.70
2017-11-25T08:02:12.450Z,169.00
2017-11-25T08:03:12.875Z,185.00
2017-11-25T08:04:12.851Z,181.40
2017-11-25T08:05:12.847Z,164.80
2017-11-25T08:06:12.592Z,157.00
2017-11-25T08:07:13.282Z,177.40
2017-11-25T08:08:12.477Z,183.90
2017-11-25T08:09:16.496Z,182.70
2017-11-25T08:10:14.362Z,169.80
2017-11-25T08:11:13.997Z,180.50
2017-11-25T08:12:13.881Z,188.30
2017-11-25T08:13:13.549Z,177.90
2017-11-25T08:14:14.361Z,187.70
2017-11-25T08:15:14.561Z,192.10
2017-11-25T08:16:14.300Z,182.50
2017-11-25T08:17:14.024Z,196.10
2017-11-25T08:18:14.541Z,196.20
2017-11-25T08:19:14.392Z,179.70
2017-11-25T08:20:19.875Z,178.10
2017-11-25T08:21:14.985Z,180.00
2017-11-25T08:22:14.479Z,166.00
2017-11-25T08:23:14.770Z,168.60
2017-11-25T08:24:14.237Z,147.00
2017-11-25T08:25:14.520Z,164.70
2017-11-25T08:26:13.443Z,139.30
2017-11-25T08:27:17.198Z,153.20
2017-11-25T08:28:15.090Z,142.10
2017-11-25T08:29:13.427Z,140.40
2017-11-25T08:30:14.914Z,148.80
2017-11-25T08:31:14.436Z,150.20
2017-11-25T08:32:14.157Z,144.30
2017-11-25T08:33:13.861Z,151.00
2017-11-25T08:34:13.478Z,150.70
2017-11-25T08:35:15.083Z,147.10
2017-11-25T08:36:14.154Z,144.10
2017-11-25T08:37:14.101Z,141.00
2017-11-25T08:38:13.714Z,149.80
2017-11-25T08:39:15.309Z,154.90
2017-11-25T08:40:14.196Z,135.60
2017-11-25T08:41:14.417Z,143.10
2017-11-25T08:42:13.759Z,153.80
2017-11-25T08:43:14.319Z,142.20
2017-11-25T08:44:15.053Z,151.80
2017-11-25T08:45:13.768Z,149.70
2017-11-25T08:46:13.455Z,147.70
2017-11-25T08:47:14.780Z,137.70
2017-11-25T08:48:13.944Z,132.10
2017-11-25T08:49:14.221Z,139.70
2017-11-25T08:50:14.892Z,145.70
2017-11-25T08:51:15.885Z,152.70
2017-11-25T08:52:13.759Z,149.20
2017-11-25T08:53:13.739Z,153.70
2017-11-25T08:54:13.598Z,152.40
2017-11-25T08:55:14.589Z,158.10
2017-11-25T08:56:14.374Z,169.00
2017-11-25T08:57:14.368Z,170.30
2017-11-25T08:58:13.794Z,172.40
2017-11-25T08:59:14.815Z,155.90
2017-11-25T09:00:13.731Z,181.70
2017-11-25T09:01:13.582Z,173.50
2017-11-25T09:02:13.783Z,163.70
2017-11-25T09:03:13.585Z,164.40
2017-11-25T09:04:14.444Z,148.10
2017-11-25T09:05:14.237Z,166.30
2017-11-25T09:06:14.161Z,154.70
2017-11-25T09:07:13.566Z,176.10
2017-11-25T09:08:15.571Z,181.00
2017-11-25T09:09:14.614Z,199.30
2017-11-25T09:10:14.397Z,194.90
2017-11-25T09:11:14.299Z,206.90
2017-11-25T09:12:14.053Z,187.10
2017-11-25T09:13:14.308Z,182.00
2017-11-25T09:14:14.054Z,177.50
2017-11-25T09:15:14.000Z,217.10
2017-11-25T09:16:13.889Z,171.40
2017-11-25T09:17:14.067Z,176.40
2017-11-25T09:18:13.746Z,128.80
2017-11-25T09:21:23.391Z,79.00
2017-11-25T09:22:23.971Z,77.20
2017-11-25T09:23:23.661Z,73.60
2017-11-25T09:24:24.270Z,83.20
2017-11-25T09:25:23.714Z,92.50
2017-11-25T09:26:24.419Z,93.60
2017-11-25T09:27:24.849Z,86.10
2017-11-25T09:28:26.128Z,88.10
2017-11-25T09:29:26.111Z,65.60
2017-11-25T09:30:25.554Z,65.80
2017-11-25T09:31:26.086Z,68.70
2017-11-25T09:32:25.659Z,61.90
2017-11-25T09:33:25.576Z,57.70
2017-11-25T09:34:25.471Z,58.00
2017-11-25T09:35:31.233Z,61.00
2017-11-25T09:36:24.494Z,50.80
2017-11-25T09:37:24.693Z,48.20
2017-11-25T09:38:25.798Z,45.50
2017-11-25T09:39:24.329Z,43.20
2017-11-25T09:40:24.090Z,47.10
2017-11-25T09:41:26.133Z,50.20
2017-11-25T09:42:24.067Z,42.80
2017-11-25T09:43:24.022Z,40.50
2017-11-25T09:44:24.602Z,34.20
2017-11-25T09:45:23.695Z,32.10
2017-11-25T09:46:23.800Z,32.50
2017-11-25T09:47:23.582Z,28.60
2017-11-25T09:48:24.215Z,26.40
2017-11-25T09:49:24.239Z,30.30
2017-11-25T09:50:24.113Z,36.60
2017-11-25T09:51:23.863Z,29.90
2017-11-25T09:52:23.799Z,39.00
2017-11-25T09:53:24.321Z,35.40
2017-11-25T09:54:23.766Z,36.40
2017-11-25T09:55:25.049Z,43.00
2017-11-25T09:56:24.025Z,39.20
2017-11-25T09:57:23.822Z,39.40
2017-11-25T09:58:23.473Z,36.50
2017-11-25T09:59:24.195Z,45.90
2017-11-25T10:00:26.783Z,46.40
2017-11-25T10:01:24.250Z,44.50
2017-11-25T10:02:23.672Z,45.90
2017-11-25T10:03:24.149Z,42.60
2017-11-25T10:04:23.897Z,38.10
2017-11-25T10:05:23.480Z,35.60
2017-11-25T10:06:24.813Z,31.00
2017-11-25T10:07:24.041Z,25.40
2017-11-25T10:08:23.753Z,29.00
2017-11-25T10:09:23.875Z,24.80
2017-11-25T10:10:23.716Z,23.80
2017-11-25T10:11:25.169Z,23.10
2017-11-25T10:12:23.865Z,26.10
2017-11-25T10:13:23.578Z,21.60
2017-11-25T10:14:24.455Z,22.80
2017-11-25T10:15:24.183Z,20.20
2017-11-25T10:16:23.728Z,21.60
2017-11-25T10:17:23.635Z,19.70
2017-11-25T10:18:23.933Z,18.40
2017-11-25T10:19:23.668Z,18.30
2017-11-25T10:20:24.085Z,19.10
2017-11-25T10:21:23.747Z,22.10
2017-11-25T10:22:24.397Z,22.30
2017-11-25T10:23:24.062Z,21.60
2017-11-25T10:24:23.757Z,20.00
2017-11-25T10:25:24.729Z,21.40
2017-11-25T10:26:32.781Z,22.40
2017-11-25T10:27:23.863Z,46.20
2017-11-25T10:28:23.723Z,29.80
2017-11-25T10:29:24.365Z,33.00
2017-11-25T10:30:24.102Z,27.40
2017-11-25T10:31:24.144Z,27.40
2017-11-25T10:32:24.597Z,24.50
2017-11-25T10:33:24.514Z,21.70
2017-11-25T10:34:25.072Z,18.90
2017-11-25T10:35:23.997Z,19.80
2017-11-25T10:36:24.424Z,20.70
2017-11-25T10:37:24.335Z,17.10
2017-11-25T10:38:26.354Z,18.70
2017-11-25T10:39:23.984Z,16.00
2017-11-25T10:40:23.764Z,20.70
2017-11-25T10:41:24.734Z,23.00
2017-11-25T10:42:24.312Z,20.00
2017-11-25T10:43:24.422Z,19.90
2017-11-25T10:44:24.145Z,17.50
2017-11-25T10:45:23.934Z,15.60
2017-11-25T10:46:23.763Z,17.00
2017-11-25T10:47:24.527Z,19.40
2017-11-25T10:48:24.233Z,15.20
2017-11-25T10:49:29.169Z,13.70
2017-11-25T10:50:28.273Z,12.40
2017-11-25T10:51:25.472Z,15.00
2017-11-25T10:52:27.670Z,13.20
2017-11-25T10:54:23.748Z,14.20
2017-11-25T10:55:24.524Z,14.00
2017-11-25T10:57:25.221Z,11.80
2017-11-25T10:58:25.297Z,12.30
2017-11-25T10:59:26.566Z,13.20
2017-11-25T11:00:25.158Z,12.80
2017-11-25T11:01:27.481Z,16.30
2017-11-25T11:02:28.657Z,10.50
2017-11-25T11:03:25.417Z,15.40
2017-11-25T11:04:25.599Z,19.50
2017-11-25T11:05:25.617Z,16.20
2017-11-25T11:06:25.284Z,14.60
2017-11-25T11:07:26.174Z,17.60
2017-11-25T11:08:26.395Z,20.60
2017-11-25T11:09:25.219Z,23.30
2017-11-25T11:10:25.262Z,16.30
2017-11-25T11:11:27.096Z,17.60
2017-11-25T11:12:25.917Z,20.60
2017-11-25T11:13:25.605Z,18.60
2017-11-25T11:14:25.284Z,17.50
2017-11-25T11:15:25.970Z,13.90
2017-11-25T11:16:25.884Z,19.10
2017-11-25T11:17:25.212Z,13.60
2017-11-25T11:18:25.226Z,15.90
2017-11-25T11:19:25.867Z,15.70
2017-11-25T11:20:25.967Z,17.80
2017-11-25T11:21:25.679Z,18.60
2017-11-25T11:22:25.546Z,19.90
2017-11-25T11:23:26.097Z,18.60
2017-11-25T11:24:26.204Z,16.50
2017-11-25T11:25:25.494Z,18.20
2017-11-25T11:26:25.292Z,18.00
2017-11-25T11:27:25.297Z,18.60
2017-11-25T11:28:25.836Z,14.00
2017-11-25T11:29:26.588Z,16.90
2017-11-25T11:30:25.993Z,16.60
2017-11-25T11:31:26.480Z,14.50
2017-11-25T11:32:25.281Z,17.30
2017-11-25T11:33:25.857Z,14.40
2017-11-25T11:34:25.743Z,12.10
2017-11-25T11:35:26.778Z,12.90
2017-11-25T11:36:25.179Z,13.40
2017-11-25T11:37:25.737Z,15.10
2017-11-25T11:38:25.159Z,15.10
2017-11-25T11:39:25.878Z,15.80
2017-11-25T11:40:25.485Z,14.00
2017-11-25T11:41:25.260Z,19.50
2017-11-25T11:42:27.036Z,15.50
2017-11-25T11:43:25.755Z,21.60
2017-11-25T11:44:25.779Z,18.80
2017-11-25T11:45:25.601Z,19.30
2017-11-25T11:46:25.417Z,20.80
2017-11-25T11:47:25.520Z,22.50
2017-11-25T11:48:25.182Z,23.00
2017-11-25T11:49:26.074Z,22.40
2017-11-25T11:50:25.154Z,25.70
2017-11-25T11:51:25.875Z,25.10
2017-11-25T11:52:25.462Z,21.00
2017-11-25T11:53:26.408Z,27.30
2017-11-25T11:54:26.197Z,29.20
2017-11-25T11:55:25.554Z,26.30
2017-11-25T11:56:28.074Z,29.80
2017-11-25T11:57:25.856Z,25.10
2017-11-25T11:58:26.107Z,26.70
2017-11-25T11:59:25.743Z,24.90
2017-11-25T12:00:25.590Z,24.60
2017-11-25T12:01:25.382Z,20.80
2017-11-25T12:02:25.481Z,25.70
2017-11-25T12:03:25.410Z,24.40
2017-11-25T12:04:25.318Z,25.50
2017-11-25T12:05:25.688Z,25.00
2017-11-25T12:06:27.509Z,23.60
2017-11-25T12:07:25.367Z,18.70
2017-11-25T12:08:25.314Z,19.00
2017-11-25T12:09:25.869Z,18.80
2017-11-25T12:10:26.510Z,18.40
2017-11-25T12:11:25.953Z,18.30
2017-11-25T12:12:25.745Z,18.90
2017-11-25T12:13:25.900Z,19.30
2017-11-25T12:14:25.465Z,16.90
2017-11-25T12:15:25.179Z,22.70
2017-11-25T12:16:25.874Z,19.40
2017-11-25T12:17:26.112Z,16.70
2017-11-25T12:18:25.625Z,18.10
2017-11-25T12:19:25.214Z,24.40
2017-11-25T12:20:26.459Z,19.30
2017-11-25T12:21:25.196Z,28.50
2017-11-25T12:22:25.989Z,19.70
2017-11-25T12:23:25.796Z,17.30
2017-11-25T12:24:26.238Z,70.70
2017-11-25T12:25:24.999Z,68.60
2017-11-25T12:26:25.728Z,97.00
2017-11-25T12:27:25.377Z,25.40
2017-11-25T12:28:25.191Z,13.60
2017-11-25T12:29:25.881Z,14.00
2017-11-25T12:30:26.732Z,13.90
2017-11-25T12:31:25.776Z,12.10
2017-11-25T12:32:25.434Z,14.80
2017-11-25T12:33:24.994Z,20.20
2017-11-25T12:34:25.756Z,14.50
2017-11-25T12:35:25.557Z,15.00
2017-11-25T12:36:25.242Z,17.90
2017-11-25T12:37:25.799Z,13.00
2017-11-25T12:38:25.414Z,13.80
2017-11-25T12:39:25.747Z,12.70
2017-11-25T12:40:25.587Z,11.90
2017-11-25T12:41:25.099Z,12.20
2017-11-25T12:42:25.682Z,19.20
2017-11-25T12:43:26.672Z,17.10
2017-11-25T12:44:25.503Z,12.10
2017-11-25T12:45:25.775Z,7.40
2017-11-25T12:46:25.548Z,9.10